Time;durP1;ratioP1;P1;durP2;ratioP2;P2;SDS_P1;SDS_P2;PMS_P1;PMS_P2;Temp;Humidity;BMP_temperature;BMP_pressure;BME280_temperature;BME280_humidity;BME280_pressure;Samples;Min_cycle;Max_cycle;Signal;HPM_P1;HPM_P2
2021/08/05 00:01:38;;;;;;;3.55;2.95;;;;;;;;;;5108137;27;20502;-68
2021/08/05 00:04:04;;;;;;;3.63;3.10;;;;;;;;;;5117483;27;20104;-68
2021/08/05 00:06:32;;;;;;;5.78;2.90;;;;;;;;;;5110869;27;20080;-68
2021/08/05 00:08:58;;;;;;;5.07;2.72;;;;;;;;;;5110742;27;20728;-68
2021/08/05 00:11:24;;;;;;;4.53;2.83;;;;;;;;;;5106425;27;20047;-67
2021/08/05 00:13:50;;;;;;;3.28;2.92;;;;;;;;;;5115381;27;20043;-67
2021/08/05 00:16:17;;;;;;;2.88;2.50;;;;;;;;;;5106859;27;20511;-67
2021/08/05 00:18:43;;;;;;;3.65;2.90;;;;;;;;;;5113804;27;20086;-67
2021/08/05 00:21:10;;;;;;;3.03;2.70;;;;;;;;;;5108861;27;20503;-67
2021/08/05 00:23:36;;;;;;;3.50;2.92;;;;;;;;;;5114200;27;20050;-67
2021/08/05 00:26:02;;;;;;;4.35;2.67;;;;;;;;;;5087879;28;20103;-67
2021/08/05 00:28:28;;;;;;;4.40;2.63;;;;;;;;;;5114156;27;20463;-67
2021/08/05 00:30:54;;;;;;;4.60;2.83;;;;;;;;;;5113786;27;20039;-67
2021/08/05 00:33:20;;;;;;;4.35;2.72;;;;;;;;;;5110469;27;20067;-67
2021/08/05 00:35:47;;;;;;;3.83;2.95;;;;;;;;;;5116902;27;20043;-67
2021/08/05 00:38:13;;;;;;;3.65;3.03;;;;;;;;;;5103872;27;20113;-67
2021/08/05 00:40:39;;;;;;;4.15;3.13;;;;;;;;;;5115821;27;20383;-67
2021/08/05 00:43:06;;;;;;;3.30;3.00;;;;;;;;;;5103504;27;20039;-67
2021/08/05 00:45:32;;;;;;;4.78;3.38;;;;;;;;;;5116389;27;20040;-67
2021/08/05 00:47:58;;;;;;;5.47;3.58;;;;;;;;;;5108611;27;20040;-67
2021/08/05 00:50:24;;;;;;;4.18;3.38;;;;;;;;;;5096459;28;20073;-67
2021/08/05 00:52:50;;;;;;;4.78;3.35;;;;;;;;;;5087251;28;20054;-67
2021/08/05 00:55:18;;;;;;;4.45;3.38;;;;;;;;;;5116735;27;20089;-67
2021/08/05 00:57:45;;;;;;;5.68;4.10;;;;;;;;;;5114285;27;20089;-67
2021/08/05 01:00:12;;;;;;;4.97;4.38;;;;;;;;;;5114539;27;20047;-67
2021/08/05 01:02:40;;;;;;;5.05;4.50;;;;;;;;;;5110158;27;20462;-68
2021/08/05 01:05:07;;;;;;;4.63;4.22;;;;;;;;;;5120298;27;20063;-67
2021/08/05 01:07:38;;;;;;;5.45;4.55;;;;;;;;;;5113334;27;20135;-67
2021/08/05 01:10:14;;;;;;;6.38;4.72;;;;;;;;;;5114124;27;20491;-67
2021/08/05 01:12:47;;;;;;;7.05;4.85;;;;;;;;;;5082432;27;20040;-67
2021/08/05 01:15:20;;;;;;;6.22;4.90;;;;;;;;;;5120470;27;20038;-67
2021/08/05 01:17:53;;;;;;;6.18;4.53;;;;;;;;;;5115283;27;20035;-67
2021/08/05 01:20:20;;;;;;;6.07;5.30;;;;;;;;;;5117937;27;20053;-67
2021/08/05 01:22:49;;;;;;;4.95;4.45;;;;;;;;;;5118562;27;20126;-67
2021/08/05 01:25:18;;;;;;;5.35;4.65;;;;;;;;;;5121479;27;20070;-67
2021/08/05 01:27:45;;;;;;;4.80;4.35;;;;;;;;;;5117103;27;20059;-67
2021/08/05 01:30:11;;;;;;;5.90;4.55;;;;;;;;;;5113632;27;20031;-67
2021/08/05 01:32:38;;;;;;;8.15;4.95;;;;;;;;;;5117914;27;20448;-67
2021/08/05 01:35:04;;;;;;;6.47;4.80;;;;;;;;;;5116558;27;20042;-67
2021/08/05 01:37:30;;;;;;;6.55;4.40;;;;;;;;;;5115262;27;20062;-67
2021/08/05 01:39:56;;;;;;;5.20;4.70;;;;;;;;;;5110164;27;20033;-67
2021/08/05 01:42:23;;;;;;;5.40;4.90;;;;;;;;;;5119292;27;20031;-67
2021/08/05 01:44:51;;;;;;;5.18;4.63;;;;;;;;;;5112360;27;20496;-67
2021/08/05 01:47:19;;;;;;;6.78;5.00;;;;;;;;;;5116939;27;20036;-67
2021/08/05 01:49:46;;;;;;;5.47;4.97;;;;;;;;;;5112889;27;20043;-67
2021/08/05 01:52:12;;;;;;;5.32;4.80;;;;;;;;;;5117860;27;20085;-67
2021/08/05 01:54:39;;;;;;;5.65;5.13;;;;;;;;;;5116271;27;20035;-67
2021/08/05 01:57:05;;;;;;;5.25;4.75;;;;;;;;;;5113640;27;20051;-67
2021/08/05 01:59:32;;;;;;;5.93;4.72;;;;;;;;;;5113085;27;20039;-67
2021/08/05 02:02:00;;;;;;;4.93;4.53;;;;;;;;;;5120717;27;20061;-67
2021/08/05 02:04:36;;;;;;;5.93;5.18;;;;;;;;;;5115781;27;20072;-67
2021/08/05 02:07:13;;;;;;;6.82;5.80;;;;;;;;;;5108199;27;20037;-67
2021/08/05 02:09:54;;;;;;;5.57;5.07;;;;;;;;;;5112400;27;20121;-67
2021/08/05 02:12:20;;;;;;;5.43;4.93;;;;;;;;;;5121432;27;20097;-67
2021/08/05 02:14:46;;;;;;;6.05;4.97;;;;;;;;;;5117985;27;20476;-67
2021/08/05 02:17:12;;;;;;;7.03;5.40;;;;;;;;;;5103672;27;20131;-67
2021/08/05 02:19:39;;;;;;;6.18;5.57;;;;;;;;;;5118732;27;20459;-67
2021/08/05 02:22:05;;;;;;;6.47;5.88;;;;;;;;;;5114429;27;20050;-67
2021/08/05 02:24:33;;;;;;;6.80;6.07;;;;;;;;;;5115250;27;20049;-67
2021/08/05 02:27:00;;;;;;;6.88;6.00;;;;;;;;;;5104375;27;20479;-67
2021/08/05 02:29:28;;;;;;;6.18;5.60;;;;;;;;;;5118276;27;20039;-67
2021/08/05 02:31:55;;;;;;;8.23;4.80;;;;;;;;;;5107960;27;20047;-67
2021/08/05 02:34:21;;;;;;;8.25;6.20;;;;;;;;;;5114847;27;20041;-67
2021/08/05 02:36:48;;;;;;;7.93;6.18;;;;;;;;;;5108132;27;20119;-68
2021/08/05 02:39:14;;;;;;;5.85;5.25;;;;;;;;;;5119454;27;20042;-67
2021/08/05 02:41:41;;;;;;;6.05;5.55;;;;;;;;;;5108430;27;20043;-67
2021/08/05 02:44:07;;;;;;;7.55;5.78;;;;;;;;;;5108232;27;20090;-67
2021/08/05 02:46:34;;;;;;;6.93;6.22;;;;;;;;;;5092225;28;20159;-67
2021/08/05 02:49:00;;;;;;;7.72;6.18;;;;;;;;;;5120017;27;20478;-67
2021/08/05 02:51:27;;;;;;;6.75;5.82;;;;;;;;;;5103870;27;20411;-67
2021/08/05 02:53:55;;;;;;;6.43;5.82;;;;;;;;;;5110676;27;20471;-67
2021/08/05 02:56:21;;;;;;;7.53;6.10;;;;;;;;;;5118443;27;20040;-67
2021/08/05 02:58:47;;;;;;;6.60;6.00;;;;;;;;;;5099375;27;20101;-67
2021/08/05 03:01:14;;;;;;;7.30;6.60;;;;;;;;;;5112769;27;20035;-67
2021/08/05 03:03:41;;;;;;;7.20;5.90;;;;;;;;;;5106960;27;20434;-67
2021/08/05 03:06:07;;;;;;;6.63;5.93;;;;;;;;;;5118982;27;20038;-67
2021/08/05 03:08:43;;;;;;;5.85;5.28;;;;;;;;;;5105213;27;20092;-67
2021/08/05 03:11:09;;;;;;;6.32;5.68;;;;;;;;;;5109142;27;20135;-67
2021/08/05 03:13:36;;;;;;;7.32;6.60;;;;;;;;;;5108178;27;20111;-67
2021/08/05 03:16:02;;;;;;;6.88;6.18;;;;;;;;;;5119528;27;20111;-67
2021/08/05 03:18:28;;;;;;;6.35;5.75;;;;;;;;;;5105680;27;20035;-66
2021/08/05 03:20:54;;;;;;;13.25;8.25;;;;;;;;;;5115568;27;20070;-66
2021/08/05 03:23:21;;;;;;;7.22;6.53;;;;;;;;;;5108949;27;20488;-66
2021/08/05 03:25:47;;;;;;;8.75;6.85;;;;;;;;;;5088733;27;20051;-66
2021/08/05 03:28:13;;;;;;;9.55;7.20;;;;;;;;;;5108694;27;20431;-66
2021/08/05 03:30:39;;;;;;;8.00;7.20;;;;;;;;;;5113181;27;20038;-66
2021/08/05 03:33:05;;;;;;;8.45;7.65;;;;;;;;;;5106668;27;20066;-67
2021/08/05 03:35:31;;;;;;;10.80;7.82;;;;;;;;;;5114629;27;20054;-66
2021/08/05 03:37:57;;;;;;;8.75;7.85;;;;;;;;;;5113181;27;20066;-66
2021/08/05 03:40:24;;;;;;;7.97;7.28;;;;;;;;;;5107733;27;20032;-67
2021/08/05 03:42:50;;;;;;;9.15;8.25;;;;;;;;;;5117340;27;20458;-67
2021/08/05 03:45:16;;;;;;;9.30;8.40;;;;;;;;;;5104903;27;20450;-67
2021/08/05 03:47:42;;;;;;;9.40;8.45;;;;;;;;;;5116093;27;20071;-67
2021/08/05 03:50:09;;;;;;;9.48;8.40;;;;;;;;;;5111308;27;20092;-67
2021/08/05 03:52:35;;;;;;;9.38;8.45;;;;;;;;;;5115451;27;20385;-66
2021/08/05 03:55:03;;;;;;;9.20;8.30;;;;;;;;;;5104916;27;20104;-67
2021/08/05 03:57:29;;;;;;;9.10;8.23;;;;;;;;;;5113129;27;20104;-67
2021/08/05 03:59:55;;;;;;;9.95;8.95;;;;;;;;;;5102125;27;20039;-67
2021/08/05 04:02:21;;;;;;;8.98;8.18;;;;;;;;;;5112964;27;20036;-67
2021/08/05 04:04:48;;;;;;;10.45;9.52;;;;;;;;;;5101740;27;20043;-67
2021/08/05 04:07:14;;;;;;;9.80;8.85;;;;;;;;;;5117969;27;20476;-67
2021/08/05 04:09:40;;;;;;;10.18;9.07;;;;;;;;;;5106293;27;20442;-67
2021/08/05 04:12:06;;;;;;;10.85;9.75;;;;;;;;;;5112398;27;20054;-66
2021/08/05 04:14:33;;;;;;;12.77;10.30;;;;;;;;;;5107366;27;20037;-67
2021/08/05 04:16:59;;;;;;;11.93;10.07;;;;;;;;;;5113969;27;20522;-66
2021/08/05 04:19:26;;;;;;;10.95;9.75;;;;;;;;;;5113622;27;20055;-66
2021/08/05 04:21:53;;;;;;;10.35;9.40;;;;;;;;;;5102742;27;20043;-66
2021/08/05 04:24:20;;;;;;;10.73;9.73;;;;;;;;;;5112265;27;20044;-66
2021/08/05 04:26:46;;;;;;;10.45;9.45;;;;;;;;;;5111696;27;20035;-66
2021/08/05 04:29:12;;;;;;;10.63;9.65;;;;;;;;;;5113686;27;20061;-66
2021/08/05 04:31:39;;;;;;;11.20;10.07;;;;;;;;;;5105625;27;20039;-66
2021/08/05 04:34:05;;;;;;;10.98;9.90;;;;;;;;;;5115983;27;20155;-66
2021/08/05 04:36:37;;;;;;;10.65;9.60;;;;;;;;;;5111234;27;20043;-67
2021/08/05 04:39:03;;;;;;;10.95;9.95;;;;;;;;;;5115730;27;20501;-66
2021/08/05 04:41:31;;;;;;;11.13;10.10;;;;;;;;;;5104107;27;20126;-67
2021/08/05 04:43:58;;;;;;;10.00;9.02;;;;;;;;;;5116636;27;20167;-67
2021/08/05 04:46:24;;;;;;;14.77;13.30;;;;;;;;;;5104077;27;20044;-67
2021/08/05 04:48:50;;;;;;;12.60;11.38;;;;;;;;;;5106596;28;20050;-67
2021/08/05 04:51:17;;;;;;;10.68;9.68;;;;;;;;;;5108222;27;20093;-67
2021/08/05 04:53:43;;;;;;;11.48;10.48;;;;;;;;;;5119491;28;20363;-67
2021/08/05 04:56:09;;;;;;;12.50;11.20;;;;;;;;;;5102339;28;20071;-67
2021/08/05 04:58:38;;;;;;;11.15;10.05;;;;;;;;;;5104849;28;20048;-67
2021/08/05 05:01:04;;;;;;;12.13;10.90;;;;;;;;;;5119126;28;20040;-67
2021/08/05 05:03:31;;;;;;;10.98;9.98;;;;;;;;;;5111553;28;20463;-67
2021/08/05 05:05:57;;;;;;;20.70;18.63;;;;;;;;;;5108589;28;20063;-67
2021/08/05 05:08:25;;;;;;;17.27;15.68;;;;;;;;;;5105640;28;20032;-67
2021/08/05 05:10:58;;;;;;;12.32;11.13;;;;;;;;;;5117493;28;20080;-67
2021/08/05 05:13:24;;;;;;;11.75;10.63;;;;;;;;;;5104803;28;20445;-67
2021/08/05 05:15:50;;;;;;;12.18;11.07;;;;;;;;;;5113070;28;20047;-67
2021/08/05 05:18:18;;;;;;;12.00;10.88;;;;;;;;;;5104986;28;20046;-67
2021/08/05 05:20:45;;;;;;;11.60;10.40;;;;;;;;;;5117238;28;20483;-67
2021/08/05 05:23:11;;;;;;;10.27;9.38;;;;;;;;;;5099616;28;20126;-67
2021/08/05 05:25:38;;;;;;;12.15;11.00;;;;;;;;;;5110961;28;20126;-67
2021/08/05 05:28:04;;;;;;;12.27;11.07;;;;;;;;;;5110503;28;20460;-67
2021/08/05 05:30:30;;;;;;;12.18;11.07;;;;;;;;;;5115618;28;20058;-67
2021/08/05 05:32:57;;;;;;;12.25;10.73;;;;;;;;;;5098827;28;20520;-67
2021/08/05 05:35:23;;;;;;;12.63;11.52;;;;;;;;;;5108099;28;20138;-67
2021/08/05 05:37:51;;;;;;;12.07;10.82;;;;;;;;;;5110626;28;20043;-67
2021/08/05 05:40:17;;;;;;;13.32;12.05;;;;;;;;;;5111227;28;20106;-67
2021/08/05 05:42:43;;;;;;;12.15;10.98;;;;;;;;;;5113083;27;20231;-67
2021/08/05 05:45:10;;;;;;;14.20;12.82;;;;;;;;;;5108414;27;20122;-67
2021/08/05 05:47:37;;;;;;;12.68;11.48;;;;;;;;;;5120504;27;20457;-67
2021/08/05 05:50:03;;;;;;;13.70;12.27;;;;;;;;;;5104276;27;20043;-67
2021/08/05 05:52:29;;;;;;;13.93;12.55;;;;;;;;;;5115481;27;20035;-67
2021/08/05 05:54:56;;;;;;;13.30;11.85;;;;;;;;;;5104561;27;20085;-67
2021/08/05 05:57:22;;;;;;;13.90;12.63;;;;;;;;;;5122257;27;20088;-67
2021/08/05 05:59:48;;;;;;;14.27;12.77;;;;;;;;;;5103830;27;20095;-67
2021/08/05 06:02:14;;;;;;;14.45;13.07;;;;;;;;;;5117719;27;20112;-67
2021/08/05 06:04:44;;;;;;;14.25;12.50;;;;;;;;;;5110084;27;20039;-68
2021/08/05 06:07:11;;;;;;;14.13;12.70;;;;;;;;;;5114950;27;20403;-67
2021/08/05 06:09:37;;;;;;;12.10;10.98;;;;;;;;;;5110171;27;20039;-68
2021/08/05 06:12:03;;;;;;;13.68;12.27;;;;;;;;;;5118128;27;20028;-68
2021/08/05 06:14:35;;;;;;;13.27;12.07;;;;;;;;;;5103523;27;20040;-68
2021/08/05 06:17:01;;;;;;;12.55;11.30;;;;;;;;;;5119174;27;20114;-68
2021/08/05 06:19:27;;;;;;;12.50;11.30;;;;;;;;;;5107260;27;20051;-68
2021/08/05 06:21:53;;;;;;;12.27;11.02;;;;;;;;;;5114279;27;20051;-68
2021/08/05 06:24:19;;;;;;;11.98;10.85;;;;;;;;;;5120360;27;20128;-68
2021/08/05 06:26:46;;;;;;;10.68;9.68;;;;;;;;;;5103831;27;20063;-68
2021/08/05 06:29:12;;;;;;;10.73;9.82;;;;;;;;;;5115376;27;20455;-68
2021/08/05 06:31:39;;;;;;;10.15;9.15;;;;;;;;;;5107522;27;20044;-68
2021/08/05 06:34:05;;;;;;;9.55;8.75;;;;;;;;;;5120026;27;20103;-68
2021/08/05 06:36:32;;;;;;;10.93;9.85;;;;;;;;;;5077801;28;20052;-68
2021/08/05 06:38:58;;;;;;;11.02;9.82;;;;;;;;;;5118262;27;20476;-68
2021/08/05 06:41:25;;;;;;;10.30;9.20;;;;;;;;;;5114417;27;20042;-68
2021/08/05 06:43:51;;;;;;;9.02;8.20;;;;;;;;;;5110489;27;20147;-68
2021/08/05 06:46:17;;;;;;;9.93;8.93;;;;;;;;;;5108364;27;20139;-68
2021/08/05 06:48:43;;;;;;;9.27;8.38;;;;;;;;;;5121766;27;20035;-68
2021/08/05 06:51:10;;;;;;;9.00;8.20;;;;;;;;;;5108959;27;20036;-68
2021/08/05 06:53:36;;;;;;;10.10;8.73;;;;;;;;;;5109926;27;20040;-68
2021/08/05 06:56:03;;;;;;;8.93;7.90;;;;;;;;;;5107774;27;20050;-68
2021/08/05 06:58:29;;;;;;;9.77;8.82;;;;;;;;;;5116621;27;20043;-68
2021/08/05 07:00:56;;;;;;;9.80;8.90;;;;;;;;;;5111156;27;20122;-68
2021/08/05 07:03:22;;;;;;;9.23;8.23;;;;;;;;;;5110469;27;20040;-68
2021/08/05 07:05:48;;;;;;;9.93;9.13;;;;;;;;;;5118614;27;20495;-68
2021/08/05 07:08:15;;;;;;;9.57;8.68;;;;;;;;;;5111859;27;20059;-67
2021/08/05 07:10:41;;;;;;;8.60;7.80;;;;;;;;;;5117625;27;20392;-67
2021/08/05 07:13:07;;;;;;;10.32;8.07;;;;;;;;;;5111504;27;20088;-67
2021/08/05 07:15:33;;;;;;;9.38;7.38;;;;;;;;;;5119443;27;20295;-68
2021/08/05 07:18:00;;;;;;;8.32;7.53;;;;;;;;;;5101532;27;20148;-68
2021/08/05 07:20:26;;;;;;;9.80;6.93;;;;;;;;;;5111709;27;20074;-68
2021/08/05 07:22:52;;;;;;;7.05;6.35;;;;;;;;;;5109599;27;20055;-68
2021/08/05 07:25:18;;;;;;;7.05;6.35;;;;;;;;;;5119664;27;20135;-68
2021/08/05 07:27:45;;;;;;;6.60;6.00;;;;;;;;;;5103871;27;20046;-68
2021/08/05 07:30:13;;;;;;;8.18;6.80;;;;;;;;;;5109019;27;20115;-68
2021/08/05 07:32:39;;;;;;;7.55;6.85;;;;;;;;;;5111324;27;20059;-68
2021/08/05 07:35:06;;;;;;;7.05;6.38;;;;;;;;;;5080791;28;20040;-68
2021/08/05 07:37:32;;;;;;;7.25;6.55;;;;;;;;;;5102277;27;20088;-69
2021/08/05 07:39:58;;;;;;;6.55;5.95;;;;;;;;;;5111415;27;20526;-68
2021/08/05 07:42:25;;;;;;;7.22;6.53;;;;;;;;;;5097795;27;20039;-68
2021/08/05 07:44:51;;;;;;;6.75;6.15;;;;;;;;;;5109390;27;20044;-68
2021/08/05 07:47:17;;;;;;;6.13;5.63;;;;;;;;;;5109596;27;20032;-68
2021/08/05 07:49:43;;;;;;;6.13;5.63;;;;;;;;;;5096792;27;20047;-68
2021/08/05 07:52:10;;;;;;;5.60;5.10;;;;;;;;;;5099400;27;20039;-68
2021/08/05 07:54:36;;;;;;;5.55;4.97;;;;;;;;;;5105990;27;20039;-69
2021/08/05 07:57:03;;;;;;;4.97;4.57;;;;;;;;;;5113703;27;20170;-69
2021/08/05 07:59:29;;;;;;;5.40;5.00;;;;;;;;;;5106844;27;20040;-69
2021/08/05 08:01:55;;;;;;;4.60;4.10;;;;;;;;;;5116622;27;20100;-69
2021/08/05 08:04:21;;;;;;;5.35;4.85;;;;;;;;;;5101347;27;20058;-69
2021/08/05 08:06:47;;;;;;;3.95;3.55;;;;;;;;;;5112188;27;20051;-69
2021/08/05 08:09:14;;;;;;;3.05;2.67;;;;;;;;;;5107167;27;20040;-69
2021/08/05 08:11:40;;;;;;;7.72;2.30;;;;;;;;;;5111638;27;20100;-69
2021/08/05 08:14:06;;;;;;;2.95;2.65;;;;;;;;;;5101282;27;20052;-69
2021/08/05 08:16:35;;;;;;;3.50;3.20;;;;;;;;;;5112383;27;20071;-69
2021/08/05 08:19:01;;;;;;;3.58;3.28;;;;;;;;;;5108126;27;20096;-69
2021/08/05 08:21:27;;;;;;;3.58;2.92;;;;;;;;;;5113064;27;20498;-69
2021/08/05 08:23:53;;;;;;;3.30;3.00;;;;;;;;;;5109380;27;20392;-69
2021/08/05 08:26:19;;;;;;;3.42;2.92;;;;;;;;;;5106341;27;20468;-69
2021/08/05 08:28:46;;;;;;;3.30;3.00;;;;;;;;;;5115369;27;20067;-70
2021/08/05 08:31:12;;;;;;;3.72;2.90;;;;;;;;;;5103360;27;20089;-69
2021/08/05 08:33:38;;;;;;;2.58;2.20;;;;;;;;;;5112594;27;20450;-69
2021/08/05 08:36:04;;;;;;;3.53;1.95;;;;;;;;;;5108471;27;20043;-69
2021/08/05 08:38:30;;;;;;;2.45;2.00;;;;;;;;;;5115650;27;20039;-70
2021/08/05 08:40:57;;;;;;;2.53;1.83;;;;;;;;;;5099644;27;20407;-70
2021/08/05 08:43:24;;;;;;;2.47;1.80;;;;;;;;;;5113090;27;20372;-70
2021/08/05 08:45:53;;;;;;;2.45;2.25;;;;;;;;;;5111964;27;20083;-70
2021/08/05 08:48:20;;;;;;;2.40;2.20;;;;;;;;;;5112530;27;20292;-70
2021/08/05 08:50:46;;;;;;;3.10;2.60;;;;;;;;;;5105084;27;20490;-70
2021/08/05 08:53:15;;;;;;;2.10;1.77;;;;;;;;;;5114826;27;20032;-70
2021/08/05 08:55:43;;;;;;;3.05;1.83;;;;;;;;;;5105067;28;20032;-70
2021/08/05 08:58:11;;;;;;;2.00;1.80;;;;;;;;;;5111458;28;20043;-71
2021/08/05 09:00:37;;;;;;;2.50;2.30;;;;;;;;;;5107067;28;20036;-70
2021/08/05 09:03:04;;;;;;;2.75;1.83;;;;;;;;;;5110389;28;20114;-70
2021/08/05 09:05:31;;;;;;;1.50;1.40;;;;;;;;;;5114442;28;20077;-70
2021/08/05 09:07:58;;;;;;;2.15;1.75;;;;;;;;;;5096974;28;20034;-70
2021/08/05 09:10:25;;;;;;;1.98;1.65;;;;;;;;;;5115793;28;20040;-70
2021/08/05 09:12:54;;;;;;;2.13;1.75;;;;;;;;;;5109045;28;20063;-70
2021/08/05 09:15:37;;;;;;;3.10;2.10;;;;;;;;;;5112331;28;20040;-70
2021/08/05 09:18:04;;;;;;;2.88;1.75;;;;;;;;;;5102165;27;20467;-70
2021/08/05 09:20:30;;;;;;;2.20;1.58;;;;;;;;;;5119344;27;20030;-69
2021/08/05 09:22:56;;;;;;;1.83;1.65;;;;;;;;;;5108533;27;20039;-69
2021/08/05 09:25:32;;;;;;;1.70;1.60;;;;;;;;;;5116577;27;20078;-69
2021/08/05 09:28:00;;;;;;;2.28;1.88;;;;;;;;;;5097475;27;20028;-70
2021/08/05 09:30:37;;;;;;;2.92;2.38;;;;;;;;;;5116263;27;20082;-69
2021/08/05 09:33:08;;;;;;;3.80;2.83;;;;;;;;;;5114051;27;20130;-69
2021/08/05 09:35:34;;;;;;;2.88;2.67;;;;;;;;;;5115074;27;20093;-69
2021/08/05 09:38:20;;;;;;;2.88;2.67;;;;;;;;;;5106450;27;20044;-69
2021/08/05 09:40:54;;;;;;;3.00;2.50;;;;;;;;;;5115198;27;20107;-70
2021/08/05 09:43:20;;;;;;;;;;;;;;;;;;5077789;27;20096;-69
2021/08/05 09:45:46;;;;;;;4.07;2.60;;;;;;;;;;5116588;27;19941;-69
2021/08/05 09:48:12;;;;;;;3.20;2.80;;;;;;;;;;5109966;27;20028;-69
2021/08/05 09:50:38;;;;;;;3.30;3.00;;;;;;;;;;5120186;27;20553;-69
2021/08/05 09:53:12;;;;;;;3.38;2.95;;;;;;;;;;5109932;27;20118;-69
2021/08/05 09:55:41;;;;;;;3.58;3.28;;;;;;;;;;5094393;27;20538;-69
2021/08/05 09:58:08;;;;;;;3.72;2.65;;;;;;;;;;5106504;27;20634;-69
2021/08/05 10:00:44;;;;;;;3.30;3.00;;;;;;;;;;5118233;27;20103;-69
2021/08/05 10:03:10;;;;;;;3.28;2.97;;;;;;;;;;5112124;27;20045;-69
2021/08/05 10:05:37;;;;;;;3.00;2.70;;;;;;;;;;5095861;27;20047;-69
2021/08/05 10:08:03;;;;;;;2.67;2.47;;;;;;;;;;5111123;27;20084;-69
2021/08/05 10:10:48;;;;;;;4.40;3.00;;;;;;;;;;5116521;27;20032;-69
2021/08/05 10:13:14;;;;;;;;;;;;;;;;;;5119725;27;20043;-69
2021/08/05 10:15:51;;;;;;;3.63;3.33;;;;;;;;;;5104706;27;19981;-69
2021/08/05 10:18:18;;;;;;;3.58;3.28;;;;;;;;;;5117608;27;20043;-69
2021/08/05 10:20:44;;;;;;;3.15;2.83;;;;;;;;;;5114546;27;20063;-69
2021/08/05 10:23:11;;;;;;;4.60;2.75;;;;;;;;;;5115263;27;20043;-69
2021/08/05 10:25:38;;;;;;;4.45;3.85;;;;;;;;;;5111505;27;20104;-69
2021/08/05 10:28:04;;;;;;;4.55;3.00;;;;;;;;;;5115507;27;20082;-70
2021/08/05 10:30:30;;;;;;;4.10;3.20;;;;;;;;;;5110808;27;20468;-69
2021/08/05 10:32:57;;;;;;;3.50;3.20;;;;;;;;;;5118214;27;20452;-70
2021/08/05 10:35:24;;;;;;;4.75;3.40;;;;;;;;;;5090751;27;20376;-70
2021/08/05 10:37:50;;;;;;;4.40;3.05;;;;;;;;;;5112951;27;20035;-69
2021/08/05 10:40:17;;;;;;;4.18;3.10;;;;;;;;;;5113521;27;20043;-69
2021/08/05 10:42:43;;;;;;;2.97;2.78;;;;;;;;;;5114948;27;20558;-69
2021/08/05 10:45:10;;;;;;;3.20;3.00;;;;;;;;;;5106026;27;20046;-69
2021/08/05 10:47:38;;;;;;;2.80;2.47;;;;;;;;;;5115998;27;20101;-69
2021/08/05 10:50:08;;;;;;;5.25;2.67;;;;;;;;;;5113571;27;20146;-69
2021/08/05 10:52:37;;;;;;;3.75;2.80;;;;;;;;;;5103309;27;20084;-69
2021/08/05 10:55:04;;;;;;;2.40;2.20;;;;;;;;;;5108139;27;20514;-69
2021/08/05 10:57:30;;;;;;;3.85;2.60;;;;;;;;;;5117499;27;20043;-69
2021/08/05 11:00:02;;;;;;;3.50;2.50;;;;;;;;;;5118393;27;20059;-69
2021/08/05 11:02:47;;;;;;;2.90;2.55;;;;;;;;;;5101020;27;20074;-70
2021/08/05 11:05:25;;;;;;;2.95;2.40;;;;;;;;;;5112220;27;20084;-70
2021/08/05 11:07:52;;;;;;;2.80;2.13;;;;;;;;;;5120366;27;20044;-70
2021/08/05 11:10:19;;;;;;;4.35;2.20;;;;;;;;;;5111796;27;20046;-70
2021/08/05 11:13:12;;;;;;;2.30;2.08;;;;;;;;;;5105794;27;20035;-70
2021/08/05 11:15:38;;;;;;;2.60;2.08;;;;;;;;;;5109714;27;20040;-69
2021/08/05 11:18:08;;;;;;;3.40;2.05;;;;;;;;;;5109244;27;20081;-69
2021/08/05 11:20:34;;;;;;;2.65;2.22;;;;;;;;;;5116788;27;20456;-69
2021/08/05 11:23:01;;;;;;;3.75;2.03;;;;;;;;;;5106095;27;20489;-69
2021/08/05 11:25:47;;;;;;;2.45;1.77;;;;;;;;;;5111446;27;20503;-69
2021/08/05 11:28:25;;;;;;;3.38;2.22;;;;;;;;;;5105147;27;20047;-69
2021/08/05 11:30:58;;;;;;;2.88;2.20;;;;;;;;;;5120097;27;20043;-69
2021/08/05 11:33:36;;;;;;;2.97;2.13;;;;;;;;;;5081640;27;20047;-69
2021/08/05 11:36:22;;;;;;;3.45;2.30;;;;;;;;;;5112251;27;20039;-69
2021/08/05 11:39:03;;;;;;;2.80;2.30;;;;;;;;;;5104841;27;20043;-70
2021/08/05 11:41:42;;;;;;;2.92;1.70;;;;;;;;;;5118121;27;20044;-70
2021/08/05 11:44:24;;;;;;;1.83;1.55;;;;;;;;;;5085962;27;20065;-70
2021/08/05 11:47:06;;;;;;;3.85;2.15;;;;;;;;;;5087603;27;20082;-70
2021/08/05 11:49:52;;;;;;;1.85;1.60;;;;;;;;;;5106578;27;20120;-70
2021/08/05 11:52:25;;;;;;;4.30;1.80;;;;;;;;;;5107494;27;20039;-70
2021/08/05 11:54:59;;;;;;;2.78;1.13;;;;;;;;;;5119178;27;20103;-70
2021/08/05 11:57:25;;;;;;;2.03;1.60;;;;;;;;;;5108484;27;20044;-70
2021/08/05 11:59:54;;;;;;;1.95;1.35;;;;;;;;;;5112747;27;20082;-70
2021/08/05 12:02:21;;;;;;;3.30;1.40;;;;;;;;;;5117004;27;20027;-70
2021/08/05 12:04:48;;;;;;;2.28;1.88;;;;;;;;;;5113368;27;20074;-70
2021/08/05 12:07:17;;;;;;;6.38;1.77;;;;;;;;;;5112622;27;20076;-70
2021/08/05 12:09:43;;;;;;;1.83;1.35;;;;;;;;;;5107852;27;20035;-70
2021/08/05 12:12:09;;;;;;;1.92;1.75;;;;;;;;;;5113427;27;20042;-70
2021/08/05 12:14:36;;;;;;;1.48;1.20;;;;;;;;;;5111608;27;20050;-70
2021/08/05 12:17:02;;;;;;;2.97;1.23;;;;;;;;;;5111029;27;20426;-70
2021/08/05 12:19:31;;;;;;;1.92;1.42;;;;;;;;;;5086937;28;20058;-70
2021/08/05 12:21:57;;;;;;;1.70;1.38;;;;;;;;;;5110650;27;20532;-70
2021/08/05 12:24:25;;;;;;;2.75;1.65;;;;;;;;;;5109245;27;20043;-70
2021/08/05 12:26:58;;;;;;;1.58;1.10;;;;;;;;;;5113157;27;20577;-70
2021/08/05 12:29:24;;;;;;;1.57;1.30;;;;;;;;;;5108008;27;20106;-70
2021/08/05 12:31:50;;;;;;;2.05;1.30;;;;;;;;;;5118999;27;20035;-70
2021/08/05 12:34:18;;;;;;;2.20;1.00;;;;;;;;;;5107571;27;20055;-70
2021/08/05 12:36:45;;;;;;;1.13;1.02;;;;;;;;;;5112075;27;20038;-70
2021/08/05 12:39:11;;;;;;;2.88;1.42;;;;;;;;;;5089590;27;20444;-70
2021/08/05 12:41:40;;;;;;;2.45;1.60;;;;;;;;;;5117460;27;20039;-70
2021/08/05 12:44:07;;;;;;;2.60;1.60;;;;;;;;;;5111155;27;20475;-70
2021/08/05 12:46:34;;;;;;;1.95;1.50;;;;;;;;;;5105254;28;20035;-70
2021/08/05 12:49:01;;;;;;;2.30;1.88;;;;;;;;;;5114152;27;20028;-70
2021/08/05 12:51:28;;;;;;;1.80;1.27;;;;;;;;;;5108507;27;20092;-70
2021/08/05 12:53:55;;;;;;;2.30;1.80;;;;;;;;;;5109076;27;20403;-70
2021/08/05 12:56:44;;;;;;;3.47;1.27;;;;;;;;;;5105816;27;20040;-70
2021/08/05 12:59:10;;;;;;;2.38;1.30;;;;;;;;;;5108782;28;20410;-70
2021/08/05 13:01:36;;;;;;;1.45;1.10;;;;;;;;;;5111659;28;20118;-70
2021/08/05 13:04:02;;;;;;;2.20;1.13;;;;;;;;;;5112623;28;20039;-70
2021/08/05 13:06:50;;;;;;;2.75;0.98;;;;;;;;;;5105613;28;20032;-70
2021/08/05 13:09:17;;;;;;;2.85;1.30;;;;;;;;;;5114809;28;20082;-70
2021/08/05 13:11:43;;;;;;;2.35;1.48;;;;;;;;;;5096308;28;20553;-70
2021/08/05 13:14:25;;;;;;;2.28;1.10;;;;;;;;;;5114404;28;20032;-70
2021/08/05 13:17:11;;;;;;;2.55;1.27;;;;;;;;;;5103294;28;20518;-70
2021/08/05 13:19:56;;;;;;;2.03;0.98;;;;;;;;;;5109715;28;20051;-70
2021/08/05 13:22:37;;;;;;;2.10;0.90;;;;;;;;;;5104756;28;20478;-70
2021/08/05 13:25:05;;;;;;;1.52;0.98;;;;;;;;;;5112339;28;20067;-70
2021/08/05 13:27:34;;;;;;;3.03;1.30;;;;;;;;;;5104441;28;20039;-70
2021/08/05 13:30:01;;;;;;;1.20;1.05;;;;;;;;;;5113830;28;20116;-70
2021/08/05 13:32:27;;;;;;;1.02;0.90;;;;;;;;;;5110256;28;20042;-70
2021/08/05 13:35:13;;;;;;;1.45;0.90;;;;;;;;;;5116493;28;20031;-70
2021/08/05 13:37:42;;;;;;;1.90;0.80;;;;;;;;;;5101780;28;20047;-70
2021/08/05 13:40:22;;;;;;;2.08;1.15;;;;;;;;;;5109635;28;20031;-70
2021/08/05 13:42:48;;;;;;;2.45;1.05;;;;;;;;;;5106083;28;20512;-70
2021/08/05 13:45:15;;;;;;;0.90;0.75;;;;;;;;;;5119359;28;20106;-70
2021/08/05 13:47:41;;;;;;;1.35;1.00;;;;;;;;;;5099490;28;20035;-70
2021/08/05 13:50:18;;;;;;;1.23;0.80;;;;;;;;;;5100792;28;20106;-70
2021/08/05 13:52:45;;;;;;;1.85;0.77;;;;;;;;;;5073830;28;20044;-70
2021/08/05 13:55:12;;;;;;;0.75;0.55;;;;;;;;;;5117784;28;20494;-70
2021/08/05 13:57:38;;;;;;;4.57;0.93;;;;;;;;;;5099901;28;20143;-70
2021/08/05 14:00:05;;;;;;;4.93;1.00;;;;;;;;;;5113668;28;20556;-70
2021/08/05 14:02:31;;;;;;;1.77;0.80;;;;;;;;;;5109252;28;20507;-70
2021/08/05 14:04:58;;;;;;;2.28;1.17;;;;;;;;;;5110127;27;20483;-70
2021/08/05 14:07:24;;;;;;;1.60;1.10;;;;;;;;;;5107776;27;20031;-70
2021/08/05 14:09:51;;;;;;;1.77;1.20;;;;;;;;;;5113845;27;20103;-70
2021/08/05 14:12:17;;;;;;;1.52;1.00;;;;;;;;;;5120523;27;20035;-70
2021/08/05 14:14:43;;;;;;;1.48;0.80;;;;;;;;;;5107423;27;20036;-70
2021/08/05 14:17:10;;;;;;;2.75;1.00;;;;;;;;;;5115044;27;20051;-70
2021/08/05 14:19:36;;;;;;;1.45;1.13;;;;;;;;;;5109101;27;20476;-70
2021/08/05 14:22:03;;;;;;;2.17;1.20;;;;;;;;;;5119775;27;20035;-70
2021/08/05 14:24:29;;;;;;;1.73;1.00;;;;;;;;;;5109443;27;20035;-70
2021/08/05 14:26:56;;;;;;;3.45;1.23;;;;;;;;;;5113491;27;20036;-70
2021/08/05 14:29:23;;;;;;;1.67;1.10;;;;;;;;;;5114671;27;20066;-69
2021/08/05 14:31:49;;;;;;;1.30;1.00;;;;;;;;;;5114210;27;20130;-69
2021/08/05 14:34:16;;;;;;;1.80;1.05;;;;;;;;;;5105019;27;20043;-69
2021/08/05 14:36:42;;;;;;;3.05;1.17;;;;;;;;;;5119229;27;20071;-69
2021/08/05 14:39:08;;;;;;;1.40;1.00;;;;;;;;;;5102555;27;20055;-69
2021/08/05 14:41:35;;;;;;;2.10;1.10;;;;;;;;;;5114243;27;20036;-69
2021/08/05 14:44:06;;;;;;;1.88;1.13;;;;;;;;;;5106602;27;20236;-70
2021/08/05 14:46:32;;;;;;;1.55;1.40;;;;;;;;;;5117197;27;20048;-69